Time;durP1;ratioP1;P1;durP2;ratioP2;P2;SDS_P1;SDS_P2;PMS_P1;PMS_P2;Temp;Humidity;BMP_temperature;BMP_pressure;BME280_temperature;BME280_humidity;BME280_pressure;Samples;Min_cycle;Max_cycle;Signal;HPM_P1;HPM_P2
2021/01/14 00:04:10;;;;;;;263.33;200.70;;;18.90;44.50;;;;;;4582755;56;21580;-24
2021/01/14 00:09:15;;;;;;;254.80;194.48;;;18.90;44.60;;;;;;4586053;57;21063;-18
2021/01/14 00:14:16;;;;;;;255.55;198.70;;;18.90;44.40;;;;;;4581482;61;21533;-20
2021/01/14 00:19:18;;;;;;;256.33;197.65;;;18.90;44.40;;;;;;4582003;61;21536;-19
2021/01/14 00:24:19;;;;;;;261.50;199.60;;;18.90;44.30;;;;;;4648542;57;21031;-20
2021/01/14 00:29:21;;;;;;;257.92;194.30;;;18.90;44.40;;;;;;4599584;57;21018;-21
2021/01/14 00:34:22;;;;;;;250.05;190.80;;;18.90;44.30;;;;;;4597788;57;21090;-18
2021/01/14 00:39:23;;;;;;;255.07;193.70;;;18.90;44.20;;;;;;4599582;57;21569;-22
2021/01/14 00:44:24;;;;;;;250.77;187.73;;;18.90;44.00;;;;;;4605234;57;21095;-22
2021/01/14 00:49:26;;;;;;;254.30;192.87;;;18.90;44.00;;;;;;4585783;57;21026;-19
2021/01/14 00:54:27;;;;;;;255.73;192.37;;;18.90;43.90;;;;;;4601003;57;21210;-21
2021/01/14 00:59:27;;;;;;;252.02;187.77;;;18.90;43.90;;;;;;4581613;61;21587;-23
2021/01/14 01:04:28;;;;;;;245.48;186.20;;;18.90;44.00;;;;;;4601317;57;21059;-18
2021/01/14 01:09:29;;;;;;;250.55;185.68;;;18.90;43.60;;;;;;4600310;57;21106;-22
2021/01/14 01:14:30;;;;;;;250.87;186.37;;;18.90;43.70;;;;;;4594682;57;21086;-21
2021/01/14 01:19:31;;;;;;;245.10;181.02;;;18.90;43.60;;;;;;4603132;56;21038;-23
2021/01/14 01:24:31;;;;;;;243.93;179.30;;;18.90;43.50;;;;;;4640782;56;21131;-23
2021/01/14 01:29:35;;;;;;;244.05;184.68;;;18.80;43.40;;;;;;4619571;57;21059;-21
2021/01/14 01:34:36;;;;;;;238.18;176.73;;;18.80;43.30;;;;;;4599827;57;21892;-23
2021/01/14 01:39:37;;;;;;;248.25;183.43;;;18.80;43.60;;;;;;4581755;57;21031;-23
2021/01/14 01:44:38;;;;;;;240.00;177.12;;;18.80;43.30;;;;;;4597625;57;21070;-22
2021/01/14 01:49:42;;;;;;;245.30;184.07;;;18.90;43.30;;;;;;4590053;57;21090;-25
2021/01/14 01:54:43;;;;;;;240.87;177.65;;;18.80;43.20;;;;;;4614768;56;21035;-24
2021/01/14 01:59:44;;;;;;;239.43;176.73;;;18.90;43.10;;;;;;4593884;57;21019;-25
2021/01/14 02:04:45;;;;;;;237.73;176.43;;;18.80;43.00;;;;;;4591563;57;21030;-17
2021/01/14 02:09:49;;;;;;;232.90;175.77;;;18.80;43.10;;;;;;4592685;57;21616;-24
2021/01/14 02:14:56;;;;;;;233.02;175.40;;;18.80;42.80;;;;;;4601475;57;21066;-23
2021/01/14 02:20:00;;;;;;;230.37;169.13;;;18.80;42.60;;;;;;4645590;57;21540;-22
2021/01/14 02:25:16;;;;;;;234.87;174.18;;;18.80;42.90;;;;;;4612862;57;22067;-26
2021/01/14 02:30:18;;;;;;;228.07;164.77;;;18.80;42.70;;;;;;4585690;57;21082;-24
2021/01/14 02:35:19;;;;;;;226.90;165.68;;;18.80;42.70;;;;;;4602080;57;21149;-24
2021/01/14 02:40:20;;;;;;;227.68;166.55;;;18.80;42.60;;;;;;4597969;57;21090;-21
2021/01/14 02:45:21;;;;;;;219.73;157.35;;;18.80;42.60;;;;;;4598569;56;21038;-18
2021/01/14 02:50:23;;;;;;;218.98;161.00;;;18.80;42.50;;;;;;4588918;57;21094;-22
2021/01/14 02:55:26;;;;;;;213.73;156.87;;;18.80;42.50;;;;;;4590098;57;21937;-19
2021/01/14 03:00:27;;;;;;;213.02;156.02;;;18.80;42.40;;;;;;4596067;57;21034;-22
2021/01/14 03:05:28;;;;;;;217.40;156.45;;;18.80;42.30;;;;;;4587029;57;21544;-21
2021/01/14 03:10:29;;;;;;;212.52;155.05;;;18.80;42.30;;;;;;4603969;57;21043;-24
2021/01/14 03:15:30;;;;;;;204.68;146.95;;;18.80;42.20;;;;;;4595353;56;21509;-27
2021/01/14 03:20:33;;;;;;;205.70;152.38;;;18.80;42.30;;;;;;4606488;57;21083;-18
2021/01/14 03:25:34;;;;;;;205.30;146.85;;;18.80;42.00;;;;;;4617009;56;21023;-25
2021/01/14 03:30:35;;;;;;;202.40;147.23;;;18.80;41.90;;;;;;4591886;57;21027;-24
2021/01/14 03:35:36;;;;;;;199.00;144.57;;;18.80;42.00;;;;;;4584811;56;21099;-22
2021/01/14 03:40:36;;;;;;;192.98;143.80;;;18.80;42.00;;;;;;4656766;56;21034;-25
2021/01/14 03:45:37;;;;;;;190.60;139.57;;;18.80;42.10;;;;;;4594065;57;21090;-25
2021/01/14 03:50:38;;;;;;;199.52;144.30;;;18.70;41.70;;;;;;4588752;57;21067;-20
2021/01/14 03:55:39;;;;;;;190.98;139.68;;;18.80;41.80;;;;;;4595380;57;21034;-24
2021/01/14 04:00:40;;;;;;;190.90;141.12;;;18.80;41.80;;;;;;4594809;57;21098;-18
2021/01/14 04:05:41;;;;;;;188.57;138.35;;;18.70;41.70;;;;;;4594930;56;21097;-24
2021/01/14 04:10:42;;;;;;;187.27;134.48;;;18.70;41.80;;;;;;4593281;57;21123;-24
2021/01/14 04:15:43;;;;;;;190.90;136.95;;;18.70;41.50;;;;;;4583601;56;21098;-23
2021/01/14 04:20:44;;;;;;;180.10;131.95;;;18.70;41.00;;;;;;4581338;61;21035;-18
2021/01/14 04:25:44;;;;;;;174.60;129.32;;;18.80;41.60;;;;;;4603932;57;21067;-24
2021/01/14 04:30:45;;;;;;;178.87;130.87;;;18.70;41.60;;;;;;4595660;56;21138;-25
2021/01/14 04:35:50;;;;;;;175.48;131.00;;;18.70;41.50;;;;;;4581985;61;22033;-20
2021/01/14 04:41:02;;;;;;;169.75;127.97;;;18.70;41.40;;;;;;4592271;57;21035;-24
2021/01/14 04:46:05;;;;;;;162.30;120.75;;;18.70;41.20;;;;;;4597046;56;21132;-25
2021/01/14 04:51:08;;;;;;;166.23;124.80;;;18.70;41.30;;;;;;4597691;57;21050;-23
2021/01/14 04:56:10;;;;;;;166.98;125.55;;;18.80;41.40;;;;;;4581355;57;21094;-23
2021/01/14 05:01:23;;;;;;;163.55;122.30;;;18.70;41.20;;;;;;4590083;57;21011;-24
2021/01/14 05:06:26;;;;;;;155.02;114.70;;;18.70;41.40;;;;;;4599619;56;21508;-23
2021/01/14 05:11:36;;;;;;;160.90;121.65;;;18.70;41.10;;;;;;4580740;61;21078;-24
2021/01/14 05:16:37;;;;;;;164.60;121.37;;;18.70;41.20;;;;;;4583777;57;21046;-24
2021/01/14 05:21:40;;;;;;;155.75;115.47;;;18.70;41.20;;;;;;4604860;57;21480;-24
2021/01/14 05:26:42;;;;;;;156.02;117.40;;;18.70;41.20;;;;;;4610527;56;21046;-19
2021/01/14 05:31:44;;;;;;;157.35;117.97;;;18.70;41.10;;;;;;4598738;57;21071;-20
2021/01/14 05:37:03;;;;;;;151.48;114.62;;;18.70;41.00;;;;;;4614689;57;21082;-24
2021/01/14 05:42:09;;;;;;;149.95;112.37;;;18.70;41.20;;;;;;4599369;56;21488;-24
2021/01/14 05:47:27;;;;;;;146.97;108.37;;;18.70;41.00;;;;;;4595252;56;21098;-19
2021/01/14 05:52:30;;;;;;;150.55;111.82;;;18.70;41.10;;;;;;4587505;57;21102;-24
2021/01/14 05:57:40;;;;;;;146.62;110.45;;;18.70;41.10;;;;;;4582503;58;21643;-27
2021/01/14 06:02:41;;;;;;;144.48;109.93;;;18.70;40.90;;;;;;4592339;57;22187;-22
2021/01/14 06:07:43;;;;;;;146.60;108.65;;;18.70;41.00;;;;;;4596423;57;22331;-31
2021/01/14 06:12:49;;;;;;;142.30;108.68;;;18.70;41.00;;;;;;4582136;57;21643;-25
2021/01/14 06:17:51;;;;;;;139.40;106.30;;;18.70;40.80;;;;;;4624244;57;21034;-25
2021/01/14 06:22:55;;;;;;;134.60;103.80;;;18.70;41.00;;;;;;4612123;56;21030;-21
2021/01/14 06:27:56;;;;;;;135.93;103.97;;;18.70;41.10;;;;;;4593214;57;21580;-25
2021/01/14 06:33:03;;;;;;;137.45;101.65;;;18.70;41.30;;;;;;4598894;56;21120;-23
2021/01/14 06:38:11;;;;;;;130.30;100.90;;;18.70;41.20;;;;;;4581629;61;21043;-18
2021/01/14 06:43:16;;;;;;;128.15;99.50;;;18.70;41.40;;;;;;4592835;57;21259;-24
2021/01/14 06:48:27;;;;;;;135.98;102.68;;;18.70;41.30;;;;;;4582107;57;21013;-25
2021/01/14 06:53:29;;;;;;;133.60;104.53;;;18.70;41.20;;;;;;4598556;57;21030;-24
2021/01/14 06:58:33;;;;;;;134.98;101.03;;;18.70;41.00;;;;;;4607637;57;21015;-25
2021/01/14 07:03:59;;;;;;;136.30;102.53;;;18.70;41.20;;;;;;4604143;57;21540;-24
2021/01/14 07:09:14;;;;;;;132.55;101.15;;;18.70;41.20;;;;;;4617834;57;21070;-24
2021/01/14 07:14:19;;;;;;;136.10;101.28;;;18.60;41.20;;;;;;4583932;57;21528;-21
2021/01/14 07:19:20;;;;;;;130.82;97.82;;;18.70;41.20;;;;;;4608550;57;21082;-18
2021/01/14 07:24:26;;;;;;;137.70;103.28;;;18.70;41.20;;;;;;4603499;56;21481;-24
2021/01/14 07:29:27;;;;;;;128.98;97.45;;;18.70;41.20;;;;;;4589404;57;21043;-24
2021/01/14 07:35:47;;;;;;;130.80;100.35;;;18.70;41.30;;;;;;4586002;57;21134;-24
2021/01/14 07:40:53;;;;;;;130.73;98.80;;;18.60;41.10;;;;;;4594630;57;21489;-23
2021/01/14 07:46:16;;;;;;;131.55;100.35;;;18.70;41.10;;;;;;4587636;56;21544;-19
2021/01/14 07:51:21;;;;;;;128.93;97.28;;;18.70;41.20;;;;;;4603964;57;21119;-21
2021/01/14 07:56:28;;;;;;;132.85;102.22;;;18.70;41.20;;;;;;4590753;57;21023;-23
2021/01/14 08:01:28;;;;;;;128.83;98.27;;;18.70;41.10;;;;;;4603542;57;21513;-20
2021/01/14 08:06:35;;;;;;;131.10;98.87;;;18.70;41.20;;;;;;4625700;57;21023;-24
2021/01/14 08:12:09;;;;;;;130.12;100.82;;;18.60;40.90;;;;;;4598157;57;21537;-25
2021/01/14 08:17:28;;;;;;;136.85;103.47;;;18.70;41.70;;;;;;4582150;56;21082;-24
2021/01/14 08:22:42;;;;;;;131.93;100.62;;;18.80;42.20;;;;;;4598077;57;21556;-26
2021/01/14 08:27:43;;;;;;;135.82;103.18;;;18.80;42.50;;;;;;4618828;56;21541;-23
2021/01/14 08:33:24;;;;;;;137.20;104.63;;;18.80;42.60;;;;;;4594484;56;21011;-21
2021/01/14 08:38:26;;;;;;;130.30;100.57;;;18.90;42.80;;;;;;4606839;56;21158;-27
2021/01/14 08:43:40;;;;;;;134.87;102.93;;;18.90;43.10;;;;;;4582602;57;22070;-20
2021/01/14 08:48:41;;;;;;;134.05;100.75;;;18.90;43.10;;;;;;4620649;56;21587;-22
2021/01/14 08:53:42;;;;;;;138.32;106.55;;;19.00;43.60;;;;;;4610335;56;21030;-21
2021/01/14 08:58:48;;;;;;;137.20;101.18;;;19.10;44.00;;;;;;4598916;57;21524;-24
2021/01/14 09:03:53;;;;;;;133.95;102.78;;;19.10;44.40;;;;;;4585417;56;21015;-23
2021/01/14 09:08:54;;;;;;;139.55;104.87;;;19.20;44.60;;;;;;4580237;61;21118;-24
2021/01/14 09:14:10;;;;;;;134.82;102.82;;;19.20;45.60;;;;;;4602396;57;21746;-18
2021/01/14 09:19:24;;;;;;;137.93;104.53;;;19.30;45.10;;;;;;4597897;56;21026;-19
2021/01/14 09:24:24;;;;;;;146.65;108.85;;;19.30;45.40;;;;;;4581041;61;21015;-22
2021/01/14 09:29:31;;;;;;;145.80;110.00;;;19.30;45.50;;;;;;4597836;57;21089;-26
2021/01/14 09:34:32;;;;;;;216.90;153.77;;;19.40;45.70;;;;;;4595759;56;21560;-21
2021/01/14 09:39:33;;;;;;;189.07;138.37;;;19.30;41.70;;;;;;4602475;57;21122;-26
2021/01/14 09:44:34;;;;;;;195.30;141.07;;;19.20;43.60;;;;;;4591899;56;21058;-24
2021/01/14 09:49:35;;;;;;;189.52;140.25;;;19.20;43.10;;;;;;4581030;61;21125;-25
2021/01/14 09:54:40;;;;;;;203.80;145.15;;;19.20;43.30;;;;;;4595961;56;21536;-33
2021/01/14 09:59:50;;;;;;;197.05;148.73;;;19.20;43.00;;;;;;4585447;57;21556;-19
2021/01/14 10:05:01;;;;;;;201.77;144.27;;;19.20;43.30;;;;;;4588647;57;21071;-23
2021/01/14 10:10:03;;;;;;;199.55;139.18;;;19.20;43.60;;;;;;4585566;57;21055;-25
2021/01/14 10:15:14;;;;;;;199.12;144.40;;;19.20;43.80;;;;;;4586458;57;21110;-22
2021/01/14 10:20:15;;;;;;;201.85;146.25;;;19.20;43.90;;;;;;4581289;61;22261;-25
2021/01/14 10:25:17;;;;;;;207.07;151.80;;;19.20;43.90;;;;;;4594409;56;21178;-25
2021/01/14 10:30:23;;;;;;;206.07;150.95;;;19.30;44.30;;;;;;4592361;57;21142;-23
2021/01/14 10:35:32;;;;;;;206.70;155.12;;;19.30;44.40;;;;;;4595616;57;21006;-21
2021/01/14 10:40:49;;;;;;;206.23;149.35;;;19.40;44.90;;;;;;4600028;57;21022;-21
2021/01/14 10:45:50;;;;;;;208.60;153.85;;;19.40;45.30;;;;;;4596643;57;22312;-25
2021/01/14 10:50:53;;;;;;;207.02;152.45;;;19.40;45.20;;;;;;4592423;57;21062;-25
2021/01/14 10:57:53;;;;;;;204.70;153.95;;;19.40;45.50;;;;;;4672820;56;21007;-20
2021/01/14 11:03:09;;;;;;;207.40;151.23;;;19.40;45.80;;;;;;4583220;57;21007;-25
2021/01/14 11:08:24;;;;;;;209.25;152.38;;;19.50;46.20;;;;;;4613588;57;21632;-25
2021/01/14 11:13:42;;;;;;;203.40;147.20;;;19.50;46.40;;;;;;4583211;57;21038;-22
2021/01/14 11:18:45;;;;;;;201.90;146.62;;;19.50;46.60;;;;;;4581616;61;21565;-27
2021/01/14 11:23:46;;;;;;;206.68;151.40;;;19.60;46.90;;;;;;4619298;56;21662;-21
2021/01/14 11:28:48;;;;;;;206.48;150.30;;;19.60;47.10;;;;;;4581608;56;21034;-24
2021/01/14 11:33:49;;;;;;;208.63;154.65;;;19.60;47.30;;;;;;4580822;58;21090;-24
2021/01/14 11:38:52;;;;;;;210.55;157.60;;;19.60;47.60;;;;;;4586181;57;21038;-21
2021/01/14 11:43:54;;;;;;;207.80;152.27;;;19.70;47.70;;;;;;4581319;61;21079;-20
2021/01/14 11:48:55;;;;;;;209.40;150.75;;;19.70;47.90;;;;;;4588141;57;21036;-25
2021/01/14 11:53:56;;;;;;;218.25;164.15;;;19.70;48.00;;;;;;4595437;57;21139;-22
2021/01/14 11:58:57;;;;;;;220.48;163.05;;;19.70;48.20;;;;;;4593882;56;21608;-18
2021/01/14 12:03:58;;;;;;;230.80;170.32;;;19.60;47.80;;;;;;4582987;57;21114;-19
2021/01/14 12:08:58;;;;;;;227.75;169.77;;;19.50;47.70;;;;;;4602512;57;21528;-20
2021/01/14 12:13:59;;;;;;;216.43;164.15;;;19.50;47.60;;;;;;4581387;61;21135;-20
2021/01/14 12:19:00;;;;;;;229.10;169.87;;;19.50;47.40;;;;;;4592052;57;21099;-19
2021/01/14 12:24:04;;;;;;;237.45;177.98;;;19.40;47.40;;;;;;4582430;57;21212;-19
2021/01/14 12:29:05;;;;;;;214.18;161.07;;;19.40;47.70;;;;;;4594599;56;21424;-23
2021/01/14 12:34:06;;;;;;;227.23;173.35;;;19.40;47.20;;;;;;4588717;56;21086;-19
2021/01/14 12:39:07;;;;;;;229.70;176.32;;;19.40;47.10;;;;;;4587110;56;21568;-21
2021/01/14 12:44:08;;;;;;;234.48;178.12;;;19.40;46.90;;;;;;4594901;56;21010;-21
2021/01/14 12:49:09;;;;;;;230.77;174.60;;;19.30;47.30;;;;;;4586231;57;21058;-22
2021/01/14 12:54:10;;;;;;;226.85;166.52;;;19.30;47.20;;;;;;4599270;57;21110;-23
2021/01/14 12:59:11;;;;;;;226.00;171.87;;;19.40;47.40;;;;;;4599262;57;21488;-22
2021/01/14 13:04:15;;;;;;;234.43;174.85;;;19.50;47.60;;;;;;4595701;57;21131;-21
2021/01/14 13:09:16;;;;;;;232.57;174.32;;;19.50;47.80;;;;;;4581274;57;21719;-21
2021/01/14 13:14:17;;;;;;;239.73;180.63;;;19.60;48.00;;;;;;4581767;61;21079;-20
2021/01/14 13:19:19;;;;;;;230.85;175.50;;;19.60;48.10;;;;;;4580930;61;21060;-23
2021/01/14 13:24:20;;;;;;;227.75;175.57;;;19.60;48.40;;;;;;4591121;57;21550;-25
2021/01/14 13:29:21;;;;;;;234.87;180.30;;;19.60;48.50;;;;;;4588525;57;21564;-23
2021/01/14 13:34:22;;;;;;;240.40;184.95;;;19.70;48.60;;;;;;4588661;56;21134;-24
2021/01/14 13:39:23;;;;;;;235.88;178.55;;;19.70;48.80;;;;;;4581122;61;21585;-25
2021/01/14 13:44:26;;;;;;;236.02;183.73;;;19.70;49.00;;;;;;4593132;57;21091;-26
2021/01/14 13:49:27;;;;;;;242.05;189.02;;;19.70;49.00;;;;;;4612037;56;21677;-23
2021/01/14 13:54:28;;;;;;;239.10;185.77;;;19.80;49.40;;;;;;4581754;56;21075;-18
2021/01/14 13:59:31;;;;;;;233.85;175.95;;;19.70;49.40;;;;;;4591721;57;21571;-24
2021/01/14 14:04:32;;;;;;;235.82;180.90;;;19.80;49.70;;;;;;4588857;57;21485;-26
2021/01/14 14:09:33;;;;;;;246.80;188.65;;;19.80;49.70;;;;;;4586889;57;21059;-24
2021/01/14 14:14:33;;;;;;;229.48;177.40;;;19.80;50.00;;;;;;4606056;56;21106;-23
2021/01/14 14:19:34;;;;;;;240.18;183.37;;;19.80;50.00;;;;;;4583385;56;21051;-26
2021/01/14 14:24:35;;;;;;;251.95;194.02;;;19.80;50.20;;;;;;4612486;56;21039;-25
2021/01/14 14:29:36;;;;;;;242.50;187.27;;;19.80;49.90;;;;;;4588651;57;21092;-25
2021/01/14 14:34:37;;;;;;;241.40;182.23;;;19.70;49.90;;;;;;4584521;56;21477;-23
2021/01/14 14:39:39;;;;;;;251.15;193.73;;;19.70;49.70;;;;;;4613368;56;21091;-26
2021/01/14 14:44:40;;;;;;;247.43;195.50;;;19.70;49.90;;;;;;4606607;56;21501;-20
2021/01/14 14:49:41;;;;;;;249.02;191.43;;;19.70;49.90;;;;;;4582992;57;21039;-26
2021/01/14 14:54:44;;;;;;;254.93;196.65;;;19.60;49.70;;;;;;4601483;57;21485;-27
2021/01/14 14:59:46;;;;;;;249.07;196.52;;;19.60;49.60;;;;;;4581919;61;21175;-25
2021/01/14 15:04:47;;;;;;;237.63;184.95;;;19.60;49.50;;;;;;4584215;56;21124;-28
2021/01/14 15:09:48;;;;;;;250.68;197.50;;;19.60;49.30;;;;;;4581194;57;21096;-25
2021/01/14 15:14:49;;;;;;;251.55;197.73;;;19.50;49.30;;;;;;4603362;57;21509;-21
2021/01/14 15:19:50;;;;;;;255.85;197.93;;;19.50;49.30;;;;;;4602773;56;21111;-25
2021/01/14 15:24:51;;;;;;;256.58;198.80;;;19.60;49.30;;;;;;4609383;57;21046;-26
2021/01/14 15:29:53;;;;;;;259.25;204.93;;;19.50;49.30;;;;;;4609881;56;21584;-23
2021/01/14 15:34:54;;;;;;;260.55;203.20;;;19.60;49.40;;;;;;4583955;57;21085;-24
2021/01/14 15:39:55;;;;;;;259.62;201.07;;;19.60;49.30;;;;;;4585534;57;21557;-23
2021/01/14 15:44:56;;;;;;;261.48;202.23;;;19.50;49.30;;;;;;4581068;61;21083;-19
2021/01/14 15:49:56;;;;;;;262.65;206.05;;;19.60;49.30;;;;;;4609388;57;21508;-19
2021/01/14 15:54:58;;;;;;;261.70;208.55;;;19.60;49.30;;;;;;4592204;57;21114;-25
2021/01/14 15:59:59;;;;;;;264.35;205.87;;;19.60;48.90;;;;;;4585553;57;21032;-21
2021/01/14 16:05:00;;;;;;;264.12;206.52;;;19.60;49.30;;;;;;4598394;57;21494;-27
2021/01/14 16:10:01;;;;;;;266.35;207.23;;;19.50;49.20;;;;;;4581522;61;21646;-25
2021/01/14 16:15:01;;;;;;;265.80;208.98;;;19.40;49.20;;;;;;4603548;57;21030;-19
2021/01/14 16:20:04;;;;;;;262.90;209.25;;;19.40;49.20;;;;;;4603572;57;21106;-24
2021/01/14 16:25:06;;;;;;;264.23;207.02;;;19.40;49.10;;;;;;4597948;57;21042;-25
2021/01/14 16:30:08;;;;;;;259.92;207.40;;;19.30;48.90;;;;;;4591927;57;21082;-24
2021/01/14 16:35:10;;;;;;;267.52;216.65;;;19.30;48.90;;;;;;4598877;56;21102;-18
2021/01/14 16:40:12;;;;;;;265.02;206.93;;;19.30;48.60;;;;;;4604306;57;21019;-24
2021/01/14 16:45:14;;;;;;;270.30;213.45;;;19.20;48.60;;;;;;4582639;56;21062;-19
2021/01/14 16:50:15;;;;;;;268.27;210.90;;;19.20;48.40;;;;;;4602666;57;21083;-21
2021/01/14 16:55:16;;;;;;;271.75;213.85;;;19.20;48.40;;;;;;4583893;57;21617;-20
2021/01/14 17:00:17;;;;;;;273.52;212.88;;;19.20;48.60;;;;;;4598080;56;21094;-20
2021/01/14 17:05:18;;;;;;;272.77;214.70;;;19.20;48.60;;;;;;4622695;56;21058;-19
2021/01/14 17:10:19;;;;;;;278.77;217.10;;;19.10;48.30;;;;;;4585253;57;21692;-21
2021/01/14 17:15:20;;;;;;;275.73;220.10;;;19.10;49.10;;;;;;4594685;56;21029;-20
2021/01/14 17:20:21;;;;;;;278.73;218.27;;;19.10;48.30;;;;;;4603089;56;21083;-19
2021/01/14 17:25:22;;;;;;;279.67;223.15;;;19.10;48.10;;;;;;4587021;57;21501;-20
2021/01/14 17:30:23;;;;;;;276.30;216.60;;;19.10;48.00;;;;;;4603871;56;21130;-20
2021/01/14 17:35:29;;;;;;;281.25;219.27;;;19.10;48.10;;;;;;4603304;57;21070;-19
2021/01/14 17:40:32;;;;;;;283.52;225.15;;;19.10;48.00;;;;;;4620058;56;21087;-23
2021/01/14 17:45:33;;;;;;;271.15;212.80;;;19.10;47.80;;;;;;4587089;57;21524;-19
2021/01/14 17:50:34;;;;;;;279.00;223.27;;;19.10;47.90;;;;;;4581183;61;21027;-21
2021/01/14 17:55:35;;;;;;;275.90;221.43;;;19.10;47.80;;;;;;4600512;57;21039;-21
2021/01/14 18:00:35;;;;;;;286.58;223.18;;;19.00;47.80;;;;;;4581655;56;21147;-23
2021/01/14 18:05:36;;;;;;;290.17;230.25;;;19.00;47.80;;;;;;4585735;56;21055;-23
2021/01/14 18:10:37;;;;;;;273.02;216.27;;;19.00;47.50;;;;;;4593554;56;21146;-24
2021/01/14 18:15:38;;;;;;;275.13;218.73;;;19.00;47.50;;;;;;4593892;57;21046;-26
2021/01/14 18:20:39;;;;;;;272.12;214.20;;;19.00;47.30;;;;;;4581209;58;21151;-21
2021/01/14 18:25:40;;;;;;;274.33;218.25;;;19.00;47.30;;;;;;4596056;57;21565;-25
2021/01/14 18:30:41;;;;;;;283.27;226.62;;;19.00;47.30;;;;;;4581029;60;21058;-21
2021/01/14 18:35:44;;;;;;;281.67;226.37;;;19.00;47.30;;;;;;4586910;57;21083;-21
2021/01/14 18:40:45;;;;;;;274.30;217.25;;;19.00;47.30;;;;;;4614273;57;21091;-20
2021/01/14 18:45:46;;;;;;;286.12;231.32;;;19.00;47.30;;;;;;4583749;56;21489;-25
2021/01/14 18:50:48;;;;;;;280.33;226.30;;;19.00;47.30;;;;;;4583707;57;21051;-25
2021/01/14 18:55:49;;;;;;;278.40;223.00;;;19.00;47.20;;;;;;4582200;61;21549;-25
2021/01/14 19:00:49;;;;;;;276.92;218.88;;;19.00;47.00;;;;;;4641961;57;21029;-24
2021/01/14 19:05:50;;;;;;;280.73;224.20;;;19.00;46.90;;;;;;4613801;57;21552;-24
2021/01/14 19:10:51;;;;;;;269.90;213.35;;;19.00;47.20;;;;;;4595782;56;21059;-24
2021/01/14 19:15:52;;;;;;;276.02;221.32;;;19.00;47.00;;;;;;4581541;61;21505;-24
2021/01/14 19:20:53;;;;;;;279.05;220.60;;;19.00;47.00;;;;;;4598676;57;21051;-25
2021/01/14 19:25:54;;;;;;;272.05;214.95;;;19.00;47.10;;;;;;4599430;56;21027;-23
2021/01/14 19:30:55;;;;;;;257.02;203.35;;;19.00;47.00;;;;;;4592362;57;21098;-24
2021/01/14 19:35:55;;;;;;;268.60;215.70;;;19.00;46.90;;;;;;4615011;57;21651;-22
2021/01/14 19:40:56;;;;;;;267.83;214.07;;;18.90;46.60;;;;;;4597373;56;21138;-25
2021/01/14 19:45:57;;;;;;;261.35;206.02;;;18.90;47.10;;;;;;4581611;61;21194;-24
2021/01/14 19:50:58;;;;;;;264.17;211.87;;;18.90;47.00;;;;;;4629900;57;21432;-18
2021/01/14 19:55:59;;;;;;;259.98;206.48;;;18.90;46.70;;;;;;4587524;57;21039;-25
2021/01/14 20:01:00;;;;;;;259.60;206.85;;;18.90;46.80;;;;;;4598095;56;21055;-23
2021/01/14 20:06:01;;;;;;;255.62;206.93;;;18.90;46.60;;;;;;4580935;61;21079;-20
2021/01/14 20:11:02;;;;;;;253.40;198.48;;;18.90;46.80;;;;;;4621865;57;21791;-20
2021/01/14 20:16:06;;;;;;;253.43;200.23;;;18.90;46.60;;;;;;4637909;57;21022;-28
2021/01/14 20:21:09;;;;;;;249.20;203.77;;;18.90;46.60;;;;;;4589062;57;21447;-25
2021/01/14 20:26:15;;;;;;;244.62;194.98;;;18.90;46.70;;;;;;4598850;57;21010;-25
2021/01/14 20:31:19;;;;;;;240.55;194.57;;;18.90;46.70;;;;;;4607866;56;21685;-25
2021/01/14 20:36:20;;;;;;;249.35;199.57;;;18.90;46.50;;;;;;4613770;57;21034;-21
2021/01/14 20:41:22;;;;;;;235.02;189.62;;;18.90;46.60;;;;;;4582590;57;21075;-23
2021/01/14 20:46:22;;;;;;;234.18;186.37;;;18.90;46.40;;;;;;4621562;56;21035;-21
2021/01/14 20:51:23;;;;;;;228.52;178.82;;;18.90;46.60;;;;;;4591092;57;21061;-18
2021/01/14 20:56:24;;;;;;;229.50;180.20;;;18.90;46.50;;;;;;4606224;56;21095;-21
2021/01/14 21:01:25;;;;;;;229.90;181.07;;;18.90;46.50;;;;;;4598496;56;21098;-19
2021/01/14 21:06:26;;;;;;;228.77;180.85;;;18.90;46.40;;;;;;4590329;57;21548;-19
2021/01/14 21:11:30;;;;;;;224.85;176.30;;;18.90;46.50;;;;;;4590690;57;21095;-21
2021/01/14 21:16:31;;;;;;;224.23;181.75;;;18.90;46.30;;;;;;4594453;57;21523;-21
2021/01/14 21:21:32;;;;;;;223.73;174.50;;;18.90;46.30;;;;;;4610047;56;21062;-20
2021/01/14 21:26:38;;;;;;;214.15;169.77;;;18.90;46.20;;;;;;4599478;57;21143;-23
2021/01/14 21:31:40;;;;;;;217.75;171.45;;;18.90;46.20;;;;;;4588179;57;21872;-23
2021/01/14 21:36:41;;;;;;;221.93;177.32;;;18.90;46.20;;;;;;4617296;57;21564;-23
2021/01/14 21:41:42;;;;;;;219.95;174.05;;;18.90;46.10;;;;;;4592807;57;21135;-24
2021/01/14 21:46:43;;;;;;;202.13;159.68;;;18.90;46.00;;;;;;4640701;56;21162;-21
2021/01/14 21:51:48;;;;;;;207.57;164.15;;;18.90;45.90;;;;;;4593240;56;21059;-24
2021/01/14 21:56:52;;;;;;;201.55;159.75;;;18.90;45.90;;;;;;4582439;61;21496;-20
2021/01/14 22:01:53;;;;;;;202.45;161.57;;;18.90;45.90;;;;;;4581956;57;21115;-20
2021/01/14 22:06:54;;;;;;;201.18;157.62;;;18.90;45.90;;;;;;4591751;56;21055;-21
2021/01/14 22:11:54;;;;;;;202.55;161.32;;;18.90;45.90;;;;;;4580930;61;21047;-23
2021/01/14 22:17:01;;;;;;;196.90;154.98;;;18.90;45.90;;;;;;4601440;57;21516;-23
2021/01/14 22:22:02;;;;;;;186.27;146.60;;;18.90;45.90;;;;;;4594919;57;21038;-19
2021/01/14 22:27:04;;;;;;;184.87;146.55;;;18.90;45.90;;;;;;4584313;56;21758;-24
2021/01/14 22:32:05;;;;;;;183.02;146.07;;;18.90;45.80;;;;;;4595280;57;21141;-24
2021/01/14 22:37:08;;;;;;;185.48;143.02;;;18.90;45.70;;;;;;4582666;56;21062;-23
2021/01/14 22:42:09;;;;;;;186.62;148.68;;;18.90;46.30;;;;;;4666906;56;21062;-24
2021/01/14 22:47:11;;;;;;;180.32;145.35;;;18.80;45.80;;;;;;4596316;56;21038;-22
2021/01/14 22:52:12;;;;;;;175.55;138.80;;;18.80;45.60;;;;;;4584081;57;21691;-22
2021/01/14 22:57:13;;;;;;;169.45;134.50;;;18.80;45.60;;;;;;4587811;56;21071;-23
2021/01/14 23:02:13;;;;;;;172.55;138.50;;;18.90;45.50;;;;;;4624687;56;21496;-20
2021/01/14 23:07:14;;;;;;;171.90;138.30;;;18.80;45.40;;;;;;4620342;57;21118;-23
2021/01/14 23:12:15;;;;;;;171.82;137.27;;;18.80;45.40;;;;;;4620656;57;21071;-16
2021/01/14 23:17:16;;;;;;;171.50;134.00;;;18.80;45.50;;;;;;4593924;57;21512;-22
2021/01/14 23:22:19;;;;;;;173.68;135.93;;;18.90;45.50;;;;;;4597702;57;21194;-24
2021/01/14 23:27:20;;;;;;;165.45;133.12;;;18.90;45.30;;;;;;4593789;57;21577;-26
2021/01/14 23:32:21;;;;;;;162.88;130.23;;;18.80;45.10;;;;;;4593802;57;21103;-20
2021/01/14 23:37:22;;;;;;;162.75;132.07;;;18.80;45.90;;;;;;4644997;57;21019;-25
2021/01/14 23:42:22;;;;;;;166.65;131.37;;;18.80;45.00;;;;;;4596622;57;21055;-24
2021/01/14 23:47:23;;;;;;;157.55;128.18;;;18.80;45.20;;;;;;4598929;57;21529;-19
2021/01/14 23:52:24;;;;;;;154.73;125.18;;;18.80;45.60;;;;;;4603592;56;21118;-19
2021/01/14 23:57:25;;;;;;;153.60;121.35;;;18.80;45.00;;;;;;4597710;57;21220;-24
